sensor_id;sensor_type;location;lat;lon;timestamp;temperature;humidity
45329;DHT22;31063;48.356;10.896;2022-11-15T00:00:32;6.20;99.90
45329;DHT22;31063;48.356;10.896;2022-11-15T00:02:58;6.20;99.90
45329;DHT22;31063;48.356;10.896;2022-11-15T00:05:23;6.20;99.90
45329;DHT22;31063;48.356;10.896;2022-11-15T00:07:49;6.20;99.90
45329;DHT22;31063;48.356;10.896;2022-11-15T00:10:15;6.20;99.90
45329;DHT22;31063;48.356;10.896;2022-11-15T00:12:40;6.20;99.90
45329;DHT22;31063;48.356;10.896;2022-11-15T00:15:07;6.20;99.90
45329;DHT22;31063;48.356;10.896;2022-11-15T00:17:32;6.20;99.90
45329;DHT22;31063;48.356;10.896;2022-11-15T00:19:58;6.20;99.90
45329;DHT22;31063;48.356;10.896;2022-11-15T00:22:24;6.20;99.90
45329;DHT22;31063;48.356;10.896;2022-11-15T00:24:49;6.20;99.90
45329;DHT22;31063;48.356;10.896;2022-11-15T00:27:15;6.20;99.90
45329;DHT22;31063;48.356;10.896;2022-11-15T00:29:40;6.20;99.90
45329;DHT22;31063;48.356;10.896;2022-11-15T00:32:11;6.20;99.90
45329;DHT22;31063;48.356;10.896;2022-11-15T00:34:37;6.10;99.90
45329;DHT22;31063;48.356;10.896;2022-11-15T00:37:03;6.10;99.90
45329;DHT22;31063;48.356;10.896;2022-11-15T00:39:28;6.10;99.90
45329;DHT22;31063;48.356;10.896;2022-11-15T00:41:54;6.10;99.90
45329;DHT22;31063;48.356;10.896;2022-11-15T00:44:19;6.10;99.90
45329;DHT22;31063;48.356;10.896;2022-11-15T00:46:45;6.10;99.90
45329;DHT22;31063;48.356;10.896;2022-11-15T00:49:11;6.10;99.90
45329;DHT22;31063;48.356;10.896;2022-11-15T00:51:36;6.00;99.90
45329;DHT22;31063;48.356;10.896;2022-11-15T00:54:02;6.00;99.90
45329;DHT22;31063;48.356;10.896;2022-11-15T00:56:28;5.90;99.90
45329;DHT22;31063;48.356;10.896;2022-11-15T00:58:53;5.90;99.90
45329;DHT22;31063;48.356;10.896;2022-11-15T01:01:19;5.90;99.90
45329;DHT22;31063;48.356;10.896;2022-11-15T01:03:44;5.90;99.90
45329;DHT22;31063;48.356;10.896;2022-11-15T01:06:10;5.90;99.90
45329;DHT22;31063;48.356;10.896;2022-11-15T01:08:41;5.90;99.90
45329;DHT22;31063;48.356;10.896;2022-11-15T01:11:11;5.90;99.90
45329;DHT22;31063;48.356;10.896;2022-11-15T01:13:38;5.90;99.90
45329;DHT22;31063;48.356;10.896;2022-11-15T01:16:07;5.80;99.90
45329;DHT22;31063;48.356;10.896;2022-11-15T01:18:33;5.80;99.90
45329;DHT22;31063;48.356;10.896;2022-11-15T01:20:59;5.80;99.90
45329;DHT22;31063;48.356;10.896;2022-11-15T01:23:24;5.80;99.90
45329;DHT22;31063;48.356;10.896;2022-11-15T01:25:50;5.80;99.90
45329;DHT22;31063;48.356;10.896;2022-11-15T01:28:16;5.80;99.90
45329;DHT22;31063;48.356;10.896;2022-11-15T01:30:41;5.80;99.90
45329;DHT22;31063;48.356;10.896;2022-11-15T01:33:07;5.70;99.90
45329;DHT22;31063;48.356;10.896;2022-11-15T01:35:32;5.70;99.90
45329;DHT22;31063;48.356;10.896;2022-11-15T01:37:58;5.70;99.90
45329;DHT22;31063;48.356;10.896;2022-11-15T01:40:23;5.70;99.90
45329;DHT22;31063;48.356;10.896;2022-11-15T01:42:49;5.70;99.90
45329;DHT22;31063;48.356;10.896;2022-11-15T01:45:15;5.60;99.90
45329;DHT22;31063;48.356;10.896;2022-11-15T01:47:47;5.60;99.90
45329;DHT22;31063;48.356;10.896;2022-11-15T01:50:21;5.50;99.90
45329;DHT22;31063;48.356;10.896;2022-11-15T01:52:47;5.50;99.90
45329;DHT22;31063;48.356;10.896;2022-11-15T01:55:21;5.50;99.90
45329;DHT22;31063;48.356;10.896;2022-11-15T01:57:51;5.50;99.90
45329;DHT22;31063;48.356;10.896;2022-11-15T02:00:17;5.50;99.90
45329;DHT22;31063;48.356;10.896;2022-11-15T02:02:43;5.50;99.90
45329;DHT22;31063;48.356;10.896;2022-11-15T02:05:09;5.50;99.90
45329;DHT22;31063;48.356;10.896;2022-11-15T02:07:36;5.50;99.90
45329;DHT22;31063;48.356;10.896;2022-11-15T02:10:09;5.40;99.90
45329;DHT22;31063;48.356;10.896;2022-11-15T02:12:36;5.40;99.90
45329;DHT22;31063;48.356;10.896;2022-11-15T02:15:02;5.40;99.90
45329;DHT22;31063;48.356;10.896;2022-11-15T02:18:07;5.40;99.90
45329;DHT22;31063;48.356;10.896;2022-11-15T02:28:38;5.20;99.90
45329;DHT22;31063;48.356;10.896;2022-11-15T02:36:55;5.20;99.90
45329;DHT22;31063;48.356;10.896;2022-11-15T02:42:14;5.10;99.90
45329;DHT22;31063;48.356;10.896;2022-11-15T02:45:04;5.10;99.90
45329;DHT22;31063;48.356;10.896;2022-11-15T02:47:37;5.00;99.90
45329;DHT22;31063;48.356;10.896;2022-11-15T02:50:08;5.00;99.90
45329;DHT22;31063;48.356;10.896;2022-11-15T02:52:34;4.90;99.90
45329;DHT22;31063;48.356;10.896;2022-11-15T02:55:00;4.90;99.90
45329;DHT22;31063;48.356;10.896;2022-11-15T02:58:14;4.90;99.90
45329;DHT22;31063;48.356;10.896;2022-11-15T03:00:19;4.80;99.90
45329;DHT22;31063;48.356;10.896;2022-11-15T03:06:02;4.80;99.90
45329;DHT22;31063;48.356;10.896;2022-11-15T03:08:31;4.80;99.90
45329;DHT22;31063;48.356;10.896;2022-11-15T03:11:07;4.80;99.90
45329;DHT22;31063;48.356;10.896;2022-11-15T03:13:48;4.80;99.90
45329;DHT22;31063;48.356;10.896;2022-11-15T03:16:45;4.80;99.90
45329;DHT22;31063;48.356;10.896;2022-11-15T03:20:04;4.70;99.90
45329;DHT22;31063;48.356;10.896;2022-11-15T03:22:07;4.70;99.90
45329;DHT22;31063;48.356;10.896;2022-11-15T03:24:36;4.70;99.90
45329;DHT22;31063;48.356;10.896;2022-11-15T03:27:08;4.70;99.90
45329;DHT22;31063;48.356;10.896;2022-11-15T03:29:41;4.70;99.90
45329;DHT22;31063;48.356;10.896;2022-11-15T03:32:12;4.70;99.90
45329;DHT22;31063;48.356;10.896;2022-11-15T03:37:31;4.70;99.90
45329;DHT22;31063;48.356;10.896;2022-11-15T03:39:59;4.70;99.90
45329;DHT22;31063;48.356;10.896;2022-11-15T03:42:30;4.60;99.90
45329;DHT22;31063;48.356;10.896;2022-11-15T03:45:21;4.60;99.90
45329;DHT22;31063;48.356;10.896;2022-11-15T03:48:14;4.60;99.90
45329;DHT22;31063;48.356;10.896;2022-11-15T03:50:42;4.60;99.90
45329;DHT22;31063;48.356;10.896;2022-11-15T03:53:08;4.60;99.90
45329;DHT22;31063;48.356;10.896;2022-11-15T03:55:34;4.60;99.90
45329;DHT22;31063;48.356;10.896;2022-11-15T03:58:01;4.50;99.90
45329;DHT22;31063;48.356;10.896;2022-11-15T04:00:27;4.60;99.90
45329;DHT22;31063;48.356;10.896;2022-11-15T04:02:53;4.50;99.90
45329;DHT22;31063;48.356;10.896;2022-11-15T04:05:19;4.50;99.90
45329;DHT22;31063;48.356;10.896;2022-11-15T04:07:45;4.50;99.90
45329;DHT22;31063;48.356;10.896;2022-11-15T04:12:52;4.50;99.90
45329;DHT22;31063;48.356;10.896;2022-11-15T04:15:20;4.40;99.90
45329;DHT22;31063;48.356;10.896;2022-11-15T04:20:23;4.30;99.90
45329;DHT22;31063;48.356;10.896;2022-11-15T04:23:30;4.30;99.90
45329;DHT22;31063;48.356;10.896;2022-11-15T04:26:16;4.30;99.90
45329;DHT22;31063;48.356;10.896;2022-11-15T04:28:42;4.30;99.90
45329;DHT22;31063;48.356;10.896;2022-11-15T04:31:27;4.30;99.90
45329;DHT22;31063;48.356;10.896;2022-11-15T04:33:53;4.20;99.90
45329;DHT22;31063;48.356;10.896;2022-11-15T04:36:19;4.30;99.90
45329;DHT22;31063;48.356;10.896;2022-11-15T04:39:04;4.20;99.90
45329;DHT22;31063;48.356;10.896;2022-11-15T04:41:29;4.20;99.90
45329;DHT22;31063;48.356;10.896;2022-11-15T04:43:55;4.20;99.90
45329;DHT22;31063;48.356;10.896;2022-11-15T04:46:21;4.20;99.90
45329;DHT22;31063;48.356;10.896;2022-11-15T04:48:47;4.10;99.90
45329;DHT22;31063;48.356;10.896;2022-11-15T04:51:13;4.10;99.90
45329;DHT22;31063;48.356;10.896;2022-11-15T04:53:38;4.10;99.90
45329;DHT22;31063;48.356;10.896;2022-11-15T04:56:04;4.10;99.90
45329;DHT22;31063;48.356;10.896;2022-11-15T04:58:30;4.10;99.90
45329;DHT22;31063;48.356;10.896;2022-11-15T05:00:55;4.00;99.90
45329;DHT22;31063;48.356;10.896;2022-11-15T05:03:21;4.00;99.90
45329;DHT22;31063;48.356;10.896;2022-11-15T05:06:22;4.10;99.90
45329;DHT22;31063;48.356;10.896;2022-11-15T05:08:48;4.00;99.90
45329;DHT22;31063;48.356;10.896;2022-11-15T05:11:13;4.00;99.90
45329;DHT22;31063;48.356;10.896;2022-11-15T05:13:39;4.00;99.90
45329;DHT22;31063;48.356;10.896;2022-11-15T05:16:05;3.90;99.90
45329;DHT22;31063;48.356;10.896;2022-11-15T05:18:30;3.90;99.90
45329;DHT22;31063;48.356;10.896;2022-11-15T05:20:56;3.90;99.90
45329;DHT22;31063;48.356;10.896;2022-11-15T05:23:27;3.90;99.90
45329;DHT22;31063;48.356;10.896;2022-11-15T05:25:53;3.90;99.90
45329;DHT22;31063;48.356;10.896;2022-11-15T05:28:18;3.90;99.90
45329;DHT22;31063;48.356;10.896;2022-11-15T05:30:44;4.00;99.90
45329;DHT22;31063;48.356;10.896;2022-11-15T05:33:10;3.90;99.90
45329;DHT22;31063;48.356;10.896;2022-11-15T05:35:57;3.80;99.90
45329;DHT22;31063;48.356;10.896;2022-11-15T05:38:25;3.80;99.90
45329;DHT22;31063;48.356;10.896;2022-11-15T05:40:51;3.80;99.90
45329;DHT22;31063;48.356;10.896;2022-11-15T05:43:17;3.80;99.90
45329;DHT22;31063;48.356;10.896;2022-11-15T05:45:43;3.80;99.90
45329;DHT22;31063;48.356;10.896;2022-11-15T05:48:09;3.80;99.90
45329;DHT22;31063;48.356;10.896;2022-11-15T05:50:37;3.80;99.90
45329;DHT22;31063;48.356;10.896;2022-11-15T05:53:04;3.80;99.90
45329;DHT22;31063;48.356;10.896;2022-11-15T05:55:31;3.70;99.90
45329;DHT22;31063;48.356;10.896;2022-11-15T05:57:57;3.70;99.90
45329;DHT22;31063;48.356;10.896;2022-11-15T06:00:22;3.70;99.90
45329;DHT22;31063;48.356;10.896;2022-11-15T06:02:48;3.70;99.90
45329;DHT22;31063;48.356;10.896;2022-11-15T06:05:14;3.70;99.90
45329;DHT22;31063;48.356;10.896;2022-11-15T06:07:39;3.70;99.90
45329;DHT22;31063;48.356;10.896;2022-11-15T06:10:05;3.70;99.90
45329;DHT22;31063;48.356;10.896;2022-11-15T06:12:31;3.80;99.90
45329;DHT22;31063;48.356;10.896;2022-11-15T06:14:57;3.80;99.90
45329;DHT22;31063;48.356;10.896;2022-11-15T06:17:22;3.70;99.90
45329;DHT22;31063;48.356;10.896;2022-11-15T06:19:48;3.70;99.90
45329;DHT22;31063;48.356;10.896;2022-11-15T06:22:13;3.70;99.90
45329;DHT22;31063;48.356;10.896;2022-11-15T06:24:39;3.70;99.90
45329;DHT22;31063;48.356;10.896;2022-11-15T06:27:04;3.70;99.90
45329;DHT22;31063;48.356;10.896;2022-11-15T06:29:30;3.70;99.90
45329;DHT22;31063;48.356;10.896;2022-11-15T06:31:56;3.70;99.90
45329;DHT22;31063;48.356;10.896;2022-11-15T06:34:21;3.70;99.90
45329;DHT22;31063;48.356;10.896;2022-11-15T06:36:47;3.80;99.90
45329;DHT22;31063;48.356;10.896;2022-11-15T06:39:12;3.70;99.90
45329;DHT22;31063;48.356;10.896;2022-11-15T06:41:38;3.70;99.90
45329;DHT22;31063;48.356;10.896;2022-11-15T06:44:04;3.80;99.90
45329;DHT22;31063;48.356;10.896;2022-11-15T06:46:29;3.70;99.90
45329;DHT22;31063;48.356;10.896;2022-11-15T06:48:55;3.80;99.90
45329;DHT22;31063;48.356;10.896;2022-11-15T06:51:20;3.80;99.90
45329;DHT22;31063;48.356;10.896;2022-11-15T06:53:46;3.80;99.90
45329;DHT22;31063;48.356;10.896;2022-11-15T06:56:12;3.80;99.90
45329;DHT22;31063;48.356;10.896;2022-11-15T06:58:37;3.90;99.90
45329;DHT22;31063;48.356;10.896;2022-11-15T07:01:09;3.80;99.90
45329;DHT22;31063;48.356;10.896;2022-11-15T07:03:39;3.90;99.90
45329;DHT22;31063;48.356;10.896;2022-11-15T07:06:05;3.90;99.90
45329;DHT22;31063;48.356;10.896;2022-11-15T07:08:31;3.90;99.90
45329;DHT22;31063;48.356;10.896;2022-11-15T07:11:02;4.00;99.90
45329;DHT22;31063;48.356;10.896;2022-11-15T07:13:29;4.10;99.90
45329;DHT22;31063;48.356;10.896;2022-11-15T07:15:58;4.00;99.90
45329;DHT22;31063;48.356;10.896;2022-11-15T07:18:26;4.10;99.90
45329;DHT22;31063;48.356;10.896;2022-11-15T07:20:52;4.10;99.90
45329;DHT22;31063;48.356;10.896;2022-11-15T07:23:18;4.20;99.90
45329;DHT22;31063;48.356;10.896;2022-11-15T07:25:44;4.10;99.90
45329;DHT22;31063;48.356;10.896;2022-11-15T07:28:09;4.20;99.90
45329;DHT22;31063;48.356;10.896;2022-11-15T07:30:35;4.30;99.90
45329;DHT22;31063;48.356;10.896;2022-11-15T07:33:01;4.30;99.90
45329;DHT22;31063;48.356;10.896;2022-11-15T07:35:27;4.30;99.90
45329;DHT22;31063;48.356;10.896;2022-11-15T07:37:58;4.30;99.90
45329;DHT22;31063;48.356;10.896;2022-11-15T07:40:28;4.30;99.90
45329;DHT22;31063;48.356;10.896;2022-11-15T07:43:01;4.40;99.90
45329;DHT22;31063;48.356;10.896;2022-11-15T07:45:27;4.50;99.90
45329;DHT22;31063;48.356;10.896;2022-11-15T07:47:54;4.60;99.90
45329;DHT22;31063;48.356;10.896;2022-11-15T07:50:24;4.50;99.90
45329;DHT22;31063;48.356;10.896;2022-11-15T07:52:54;4.60;99.90
45329;DHT22;31063;48.356;10.896;2022-11-15T07:55:21;4.60;99.90
45329;DHT22;31063;48.356;10.896;2022-11-15T07:57:46;4.70;99.90
45329;DHT22;31063;48.356;10.896;2022-11-15T08:00:12;4.80;99.90
45329;DHT22;31063;48.356;10.896;2022-11-15T08:02:38;4.80;99.90
45329;DHT22;31063;48.356;10.896;2022-11-15T08:05:04;4.90;99.90
45329;DHT22;31063;48.356;10.896;2022-11-15T08:07:30;4.90;99.90
45329;DHT22;31063;48.356;10.896;2022-11-15T08:09:56;5.00;99.90
45329;DHT22;31063;48.356;10.896;2022-11-15T08:12:22;5.10;99.90
45329;DHT22;31063;48.356;10.896;2022-11-15T08:14:48;5.20;99.90
45329;DHT22;31063;48.356;10.896;2022-11-15T08:17:13;5.20;99.90
45329;DHT22;31063;48.356;10.896;2022-11-15T08:19:39;5.30;99.90
45329;DHT22;31063;48.356;10.896;2022-11-15T08:22:05;5.30;99.90
45329;DHT22;31063;48.356;10.896;2022-11-15T08:24:30;5.40;99.90
45329;DHT22;31063;48.356;10.896;2022-11-15T08:26:56;5.50;99.90
45329;DHT22;31063;48.356;10.896;2022-11-15T08:29:21;5.50;99.90
45329;DHT22;31063;48.356;10.896;2022-11-15T08:31:47;5.60;99.90
45329;DHT22;31063;48.356;10.896;2022-11-15T08:34:13;5.70;99.90
45329;DHT22;31063;48.356;10.896;2022-11-15T08:36:38;5.70;99.90
45329;DHT22;31063;48.356;10.896;2022-11-15T08:39:04;5.80;99.90
45329;DHT22;31063;48.356;10.896;2022-11-15T08:41:32;5.90;99.90
45329;DHT22;31063;48.356;10.896;2022-11-15T08:43:59;5.90;99.90
45329;DHT22;31063;48.356;10.896;2022-11-15T08:46:24;6.00;99.90
45329;DHT22;31063;48.356;10.896;2022-11-15T08:48:50;6.10;99.90
45329;DHT22;31063;48.356;10.896;2022-11-15T08:51:16;6.20;99.90
45329;DHT22;31063;48.356;10.896;2022-11-15T08:53:42;6.30;99.90
45329;DHT22;31063;48.356;10.896;2022-11-15T08:56:12;6.40;99.90
45329;DHT22;31063;48.356;10.896;2022-11-15T08:58:37;6.50;99.90
45329;DHT22;31063;48.356;10.896;2022-11-15T09:01:04;6.50;99.90
45329;DHT22;31063;48.356;10.896;2022-11-15T09:03:30;6.60;99.90
45329;DHT22;31063;48.356;10.896;2022-11-15T09:05:59;6.70;99.90
45329;DHT22;31063;48.356;10.896;2022-11-15T09:08:29;6.70;99.90
45329;DHT22;31063;48.356;10.896;2022-11-15T09:10:55;6.80;99.90
45329;DHT22;31063;48.356;10.896;2022-11-15T09:13:21;6.80;99.90
45329;DHT22;31063;48.356;10.896;2022-11-15T09:15:47;6.80;99.90
45329;DHT22;31063;48.356;10.896;2022-11-15T09:18:12;6.90;99.90
45329;DHT22;31063;48.356;10.896;2022-11-15T09:20:38;6.90;99.90
45329;DHT22;31063;48.356;10.896;2022-11-15T09:23:04;7.10;99.90
45329;DHT22;31063;48.356;10.896;2022-11-15T09:25:31;7.10;99.90
45329;DHT22;31063;48.356;10.896;2022-11-15T09:27:56;7.20;99.90
45329;DHT22;31063;48.356;10.896;2022-11-15T09:30:24;7.30;99.90
45329;DHT22;31063;48.356;10.896;2022-11-15T09:32:50;7.40;99.90
45329;DHT22;31063;48.356;10.896;2022-11-15T09:35:16;7.40;99.90
45329;DHT22;31063;48.356;10.896;2022-11-15T09:37:41;7.50;99.90
45329;DHT22;31063;48.356;10.896;2022-11-15T09:40:11;7.60;99.90
45329;DHT22;31063;48.356;10.896;2022-11-15T09:50:51;7.90;99.90
45329;DHT22;31063;48.356;10.896;2022-11-15T09:56:30;8.10;99.90
45329;DHT22;31063;48.356;10.896;2022-11-15T10:01:47;8.30;99.90
45329;DHT22;31063;48.356;10.896;2022-11-15T10:04:15;8.40;99.90
45329;DHT22;31063;48.356;10.896;2022-11-15T10:06:46;8.40;99.90
45329;DHT22;31063;48.356;10.896;2022-11-15T10:09:19;8.60;99.90
45329;DHT22;31063;48.356;10.896;2022-11-15T10:11:46;8.60;99.90
45329;DHT22;31063;48.356;10.896;2022-11-15T10:14:21;8.70;99.90
45329;DHT22;31063;48.356;10.896;2022-11-15T10:17:08;8.70;99.90
45329;DHT22;31063;48.356;10.896;2022-11-15T10:27:33;9.10;99.90
45329;DHT22;31063;48.356;10.896;2022-11-15T10:29:59;9.10;99.90
45329;DHT22;31063;48.356;10.896;2022-11-15T10:32:25;9.30;99.90
45329;DHT22;31063;48.356;10.896;2022-11-15T10:34:51;9.30;99.90
45329;DHT22;31063;48.356;10.896;2022-11-15T10:37:31;9.40;99.90
45329;DHT22;31063;48.356;10.896;2022-11-15T10:40:16;9.50;99.90
45329;DHT22;31063;48.356;10.896;2022-11-15T10:42:42;9.60;99.90
45329;DHT22;31063;48.356;10.896;2022-11-15T10:45:29;9.70;99.90
45329;DHT22;31063;48.356;10.896;2022-11-15T10:50:45;9.80;99.90
45329;DHT22;31063;48.356;10.896;2022-11-15T10:53:41;9.90;99.90
45329;DHT22;31063;48.356;10.896;2022-11-15T10:56:11;10.00;99.90
45329;DHT22;31063;48.356;10.896;2022-11-15T10:58:41;10.00;99.90
45329;DHT22;31063;48.356;10.896;2022-11-15T11:01:27;10.10;99.90
45329;DHT22;31063;48.356;10.896;2022-11-15T11:04:06;10.20;99.90
45329;DHT22;31063;48.356;10.896;2022-11-15T11:09:35;10.30;99.90
45329;DHT22;31063;48.356;10.896;2022-11-15T11:12:03;10.40;99.90
45329;DHT22;31063;48.356;10.896;2022-11-15T11:14:33;10.40;99.90
45329;DHT22;31063;48.356;10.896;2022-11-15T11:17:16;10.50;99.90
45329;DHT22;31063;48.356;10.896;2022-11-15T11:37:03;10.90;99.90
45329;DHT22;31063;48.356;10.896;2022-11-15T11:50:28;11.20;99.90
45329;DHT22;31063;48.356;10.896;2022-11-15T11:55:34;11.30;99.90
45329;DHT22;31063;48.356;10.896;2022-11-15T12:00:29;11.40;99.90
45329;DHT22;31063;48.356;10.896;2022-11-15T12:03:11;11.50;99.90
45329;DHT22;31063;48.356;10.896;2022-11-15T12:05:44;11.50;99.90
45329;DHT22;31063;48.356;10.896;2022-11-15T12:08:26;11.60;99.90
45329;DHT22;31063;48.356;10.896;2022-11-15T12:11:10;11.70;99.90
45329;DHT22;31063;48.356;10.896;2022-11-15T12:13:38;11.80;99.90
45329;DHT22;31063;48.356;10.896;2022-11-15T12:16:28;11.80;99.90
45329;DHT22;31063;48.356;10.896;2022-11-15T12:18:56;11.90;99.90
45329;DHT22;31063;48.356;10.896;2022-11-15T12:21:48;12.00;99.90
45329;DHT22;31063;48.356;10.896;2022-11-15T12:24:38;12.10;99.90
45329;DHT22;31063;48.356;10.896;2022-11-15T12:29:59;12.20;99.90
45329;DHT22;31063;48.356;10.896;2022-11-15T12:32:34;12.20;99.90
45329;DHT22;31063;48.356;10.896;2022-11-15T12:35:03;12.30;99.90
45329;DHT22;31063;48.356;10.896;2022-11-15T12:40:25;12.40;99.90
45329;DHT22;31063;48.356;10.896;2022-11-15T12:45:37;12.50;99.90
45329;DHT22;31063;48.356;10.896;2022-11-15T12:50:56;12.60;99.90
45329;DHT22;31063;48.356;10.896;2022-11-15T12:58:50;12.80;99.90
45329;DHT22;31063;48.356;10.896;2022-11-15T13:12:10;13.00;99.90
45329;DHT22;31063;48.356;10.896;2022-11-15T13:19:57;13.10;99.90
45329;DHT22;31063;48.356;10.896;2022-11-15T13:22:24;13.10;99.90
45329;DHT22;31063;48.356;10.896;2022-11-15T13:28:12;13.20;99.90
45329;DHT22;31063;48.356;10.896;2022-11-15T13:33:32;13.30;99.90
45329;DHT22;31063;48.356;10.896;2022-11-15T13:36:02;13.30;99.90
45329;DHT22;31063;48.356;10.896;2022-11-15T13:38:31;13.20;99.90
45329;DHT22;31063;48.356;10.896;2022-11-15T13:40:58;13.30;99.90
45329;DHT22;31063;48.356;10.896;2022-11-15T13:46:14;13.30;99.90
45329;DHT22;31063;48.356;10.896;2022-11-15T13:48:41;13.30;99.90
45329;DHT22;31063;48.356;10.896;2022-11-15T13:51:20;13.30;99.90
45329;DHT22;31063;48.356;10.896;2022-11-15T13:53:57;13.20;99.90
45329;DHT22;31063;48.356;10.896;2022-11-15T13:56:23;13.20;99.90
45329;DHT22;31063;48.356;10.896;2022-11-15T13:58:51;13.10;99.90
45329;DHT22;31063;48.356;10.896;2022-11-15T14:01:20;13.00;99.90
45329;DHT22;31063;48.356;10.896;2022-11-15T14:03:58;12.90;99.90
45329;DHT22;31063;48.356;10.896;2022-11-15T14:06:28;12.80;99.90
45329;DHT22;31063;48.356;10.896;2022-11-15T14:11:35;12.70;99.90
45329;DHT22;31063;48.356;10.896;2022-11-15T14:16:40;12.60;99.90
45329;DHT22;31063;48.356;10.896;2022-11-15T14:19:10;12.60;99.90
45329;DHT22;31063;48.356;10.896;2022-11-15T14:21:36;12.50;99.90
45329;DHT22;31063;48.356;10.896;2022-11-15T14:24:19;12.50;99.90
45329;DHT22;31063;48.356;10.896;2022-11-15T14:26:45;12.40;99.90
45329;DHT22;31063;48.356;10.896;2022-11-15T14:29:27;12.40;99.90
45329;DHT22;31063;48.356;10.896;2022-11-15T14:32:05;12.30;99.90
45329;DHT22;31063;48.356;10.896;2022-11-15T14:34:32;12.30;99.90
45329;DHT22;31063;48.356;10.896;2022-11-15T14:36:58;12.30;99.90
45329;DHT22;31063;48.356;10.896;2022-11-15T14:39:23;12.30;99.90
45329;DHT22;31063;48.356;10.896;2022-11-15T14:41:50;12.20;99.90
45329;DHT22;31063;48.356;10.896;2022-11-15T14:44:16;12.20;99.90
45329;DHT22;31063;48.356;10.896;2022-11-15T14:46:43;12.10;99.90
45329;DHT22;31063;48.356;10.896;2022-11-15T14:49:09;12.10;99.90
45329;DHT22;31063;48.356;10.896;2022-11-15T14:51:35;12.10;99.90
45329;DHT22;31063;48.356;10.896;2022-11-15T14:54:01;12.10;99.90
45329;DHT22;31063;48.356;10.896;2022-11-15T14:56:26;12.00;99.90
45329;DHT22;31063;48.356;10.896;2022-11-15T14:58:52;12.00;99.90
45329;DHT22;31063;48.356;10.896;2022-11-15T15:01:25;12.00;99.90
45329;DHT22;31063;48.356;10.896;2022-11-15T15:03:51;12.00;99.90
45329;DHT22;31063;48.356;10.896;2022-11-15T15:06:17;12.00;99.90
45329;DHT22;31063;48.356;10.896;2022-11-15T15:08:43;11.90;99.90
45329;DHT22;31063;48.356;10.896;2022-11-15T15:11:35;11.90;99.90
45329;DHT22;31063;48.356;10.896;2022-11-15T15:14:01;11.90;99.90
45329;DHT22;31063;48.356;10.896;2022-11-15T15:16:27;11.80;99.90
45329;DHT22;31063;48.356;10.896;2022-11-15T15:18:52;11.80;99.90
45329;DHT22;31063;48.356;10.896;2022-11-15T15:21:28;11.70;99.90
45329;DHT22;31063;48.356;10.896;2022-11-15T15:23:54;11.60;99.90
45329;DHT22;31063;48.356;10.896;2022-11-15T15:26:20;11.60;99.90
45329;DHT22;31063;48.356;10.896;2022-11-15T15:28:46;11.60;99.90
45329;DHT22;31063;48.356;10.896;2022-11-15T15:31:14;11.50;99.90
45329;DHT22;31063;48.356;10.896;2022-11-15T15:33:39;11.50;99.90
45329;DHT22;31063;48.356;10.896;2022-11-15T15:36:12;11.40;99.90
45329;DHT22;31063;48.356;10.896;2022-11-15T15:38:38;11.40;99.90
45329;DHT22;31063;48.356;10.896;2022-11-15T15:41:16;11.30;99.90
45329;DHT22;31063;48.356;10.896;2022-11-15T15:43:42;11.30;99.90
45329;DHT22;31063;48.356;10.896;2022-11-15T15:46:12;11.20;99.90
45329;DHT22;31063;48.356;10.896;2022-11-15T15:48:39;11.20;99.90
45329;DHT22;31063;48.356;10.896;2022-11-15T15:51:05;11.10;99.90
45329;DHT22;31063;48.356;10.896;2022-11-15T15:53:31;11.10;99.90
45329;DHT22;31063;48.356;10.896;2022-11-15T15:55:57;11.00;99.90
45329;DHT22;31063;48.356;10.896;2022-11-15T15:58:22;11.00;99.90
45329;DHT22;31063;48.356;10.896;2022-11-15T16:00:48;11.00;99.90
45329;DHT22;31063;48.356;10.896;2022-11-15T16:03:13;10.90;99.90
45329;DHT22;31063;48.356;10.896;2022-11-15T16:05:39;10.90;99.90
45329;DHT22;31063;48.356;10.896;2022-11-15T16:08:14;10.90;99.90
45329;DHT22;31063;48.356;10.896;2022-11-15T16:10:42;10.90;99.90
45329;DHT22;31063;48.356;10.896;2022-11-15T16:13:07;10.90;99.90
45329;DHT22;31063;48.356;10.896;2022-11-15T16:15:33;10.80;99.90
45329;DHT22;31063;48.356;10.896;2022-11-15T16:18:00;10.80;99.90
45329;DHT22;31063;48.356;10.896;2022-11-15T16:23:03;10.80;99.90
45329;DHT22;31063;48.356;10.896;2022-11-15T16:25:32;10.70;99.90
45329;DHT22;31063;48.356;10.896;2022-11-15T16:27:59;10.70;99.90
45329;DHT22;31063;48.356;10.896;2022-11-15T16:30:25;10.60;99.90
45329;DHT22;31063;48.356;10.896;2022-11-15T16:32:50;10.60;99.90
45329;DHT22;31063;48.356;10.896;2022-11-15T16:35:17;10.60;99.90
45329;DHT22;31063;48.356;10.896;2022-11-15T16:37:43;10.60;99.90
45329;DHT22;31063;48.356;10.896;2022-11-15T16:40:16;10.50;99.90
45329;DHT22;31063;48.356;10.896;2022-11-15T16:42:43;10.50;99.90
45329;DHT22;31063;48.356;10.896;2022-11-15T16:45:11;10.50;99.90
45329;DHT22;31063;48.356;10.896;2022-11-15T16:47:39;10.40;99.90
45329;DHT22;31063;48.356;10.896;2022-11-15T16:50:04;10.40;99.90
45329;DHT22;31063;48.356;10.896;2022-11-15T16:52:30;10.40;99.90
45329;DHT22;31063;48.356;10.896;2022-11-15T16:54:56;10.40;99.90
45329;DHT22;31063;48.356;10.896;2022-11-15T16:57:21;10.30;99.90
45329;DHT22;31063;48.356;10.896;2022-11-15T16:59:47;10.30;99.90
45329;DHT22;31063;48.356;10.896;2022-11-15T17:02:13;10.20;99.90
45329;DHT22;31063;48.356;10.896;2022-11-15T17:04:38;10.20;99.90
45329;DHT22;31063;48.356;10.896;2022-11-15T17:07:04;10.20;99.90
45329;DHT22;31063;48.356;10.896;2022-11-15T17:09:29;10.20;99.90
45329;DHT22;31063;48.356;10.896;2022-11-15T17:11:55;10.20;99.90
45329;DHT22;31063;48.356;10.896;2022-11-15T17:14:21;10.10;99.90
45329;DHT22;31063;48.356;10.896;2022-11-15T17:16:46;10.10;99.90
45329;DHT22;31063;48.356;10.896;2022-11-15T17:21:38;10.00;99.90
45329;DHT22;31063;48.356;10.896;2022-11-15T17:24:04;10.00;99.90
45329;DHT22;31063;48.356;10.896;2022-11-15T17:26:30;10.00;99.90
45329;DHT22;31063;48.356;10.896;2022-11-15T17:28:56;10.00;99.90
45329;DHT22;31063;48.356;10.896;2022-11-15T17:31:22;10.00;99.90
45329;DHT22;31063;48.356;10.896;2022-11-15T17:33:48;10.00;99.90
45329;DHT22;31063;48.356;10.896;2022-11-15T17:36:13;10.00;99.90
45329;DHT22;31063;48.356;10.896;2022-11-15T17:38:42;9.90;99.90
45329;DHT22;31063;48.356;10.896;2022-11-15T17:41:14;9.90;99.90
45329;DHT22;31063;48.356;10.896;2022-11-15T17:43:41;9.90;99.90
45329;DHT22;31063;48.356;10.896;2022-11-15T17:46:10;9.90;99.90
45329;DHT22;31063;48.356;10.896;2022-11-15T17:48:36;9.90;99.90
45329;DHT22;31063;48.356;10.896;2022-11-15T17:51:04;9.90;99.90
45329;DHT22;31063;48.356;10.896;2022-11-15T17:53:39;9.80;99.90
45329;DHT22;31063;48.356;10.896;2022-11-15T17:56:14;9.90;99.90